Time;durP1;ratioP1;P1;durP2;ratioP2;P2;SDS_P1;SDS_P2;PMS_P1;PMS_P2;Temp;Humidity;BMP_temperature;BMP_pressure;BME280_temperature;BME280_humidity;BME280_pressure;Samples;Min_cycle;Max_cycle;Signal;HPM_P1;HPM_P2
2023/01/23 00:02:24;;;;;;;;;;;;;;;1.00;100.00;103429.25;5056458;28;19928;-63
2023/01/23 00:04:50;;;;;;;;;;;;;;;1.00;100.00;103422.97;5050043;28;20348;-63
2023/01/23 00:07:15;;;;;;;;;;;;;;;0.99;100.00;103423.97;5050869;28;19927;-63
2023/01/23 00:09:40;;;;;;;;;;;;;;;1.10;100.00;103415.97;5051121;28;19934;-63
2023/01/23 00:12:05;;;;;;;;;;;;;;;1.46;100.00;103427.91;5057744;28;20372;-65
2023/01/23 00:14:30;;;;;;;;;;;;;;;1.06;100.00;103421.69;5071562;28;19921;-63
2023/01/23 00:16:56;;;;;;;;;;;;;;;1.02;100.00;103421.91;5057817;28;20019;-63
2023/01/23 00:19:21;;;;;;;;;;;;;;;1.01;100.00;103414.78;5066097;28;20302;-63
2023/01/23 00:21:46;;;;;;;;;;;;;;;0.99;100.00;103415.84;5068505;28;19921;-61
2023/01/23 00:24:11;;;;;;;;;;;;;;;0.96;100.00;103427.75;5070754;28;19971;-65
2023/01/23 00:26:37;;;;;;;;;;;;;;;0.95;100.00;103431.41;5068803;28;19978;-65
2023/01/23 00:29:03;;;;;;;;;;;;;;;0.95;100.00;103423.28;5065100;28;19967;-63
2023/01/23 00:31:30;;;;;;;;;;;;;;;0.98;100.00;103441.16;5050873;28;19927;-64
2023/01/23 00:34:00;;;;;;;;;;;;;;;0.97;100.00;103445.72;5051034;28;19928;-65
2023/01/23 00:36:30;;;;;;;;;;;;;;;0.99;100.00;103442.91;5050642;28;19927;-64
2023/01/23 00:38:55;;;;;;;;;;;;;;;1.01;100.00;103446.34;5066210;28;19921;-65
2023/01/23 00:41:20;;;;;;;;;;;;;;;1.04;100.00;103451.56;5056176;28;19927;-63
2023/01/23 00:43:47;;;;;;;;;;;;;;;1.07;100.00;103450.50;5079788;28;19916;-62
2023/01/23 00:46:12;;;;;;;;;;;;;;;1.10;100.00;103455.69;5060204;28;20412;-63
2023/01/23 00:48:37;;;;;;;;;;;;;;;1.12;100.00;103448.34;5060574;28;19999;-64
2023/01/23 00:51:03;;;;;;;;;;;;;;;1.13;100.00;103439.25;5069027;28;20363;-65
2023/01/23 00:53:28;;;;;;;;;;;;;;;1.13;100.00;103436.56;5057020;28;19963;-62
2023/01/23 00:55:54;;;;;;;;;;;;;;;1.13;100.00;103436.56;5075043;28;19920;-62
2023/01/23 00:58:19;;;;;;;;;;;;;;;1.12;100.00;103432.13;5077287;28;19925;-62
2023/01/23 01:00:44;;;;;;;;;;;;;;;1.10;100.00;103434.03;5053947;28;19921;-66
2023/01/23 01:03:09;;;;;;;;;;;;;;;1.08;100.00;103428.75;5064203;28;19920;-63
2023/01/23 01:05:35;;;;;;;;;;;;;;;1.08;100.00;103434.16;5053055;28;19960;-62
2023/01/23 01:08:00;;;;;;;;;;;;;;;1.06;100.00;103437.94;5047314;28;20382;-62
2023/01/23 01:10:28;;;;;;;;;;;;;;;1.14;100.00;103438.28;5049910;28;19917;-63
2023/01/23 01:12:53;;;;;;;;;;;;;;;1.06;100.00;103446.91;5050210;28;19928;-60
2023/01/23 01:15:19;;;;;;;;;;;;;;;1.07;100.00;103450.50;5049568;28;19932;-60
2023/01/23 01:17:44;;;;;;;;;;;;;;;1.04;100.00;103436.19;5049880;28;20002;-60
2023/01/23 01:20:09;;;;;;;;;;;;;;;1.07;100.00;103439.69;5049029;28;19946;-60
2023/01/23 01:22:35;;;;;;;;;;;;;;;1.06;100.00;103437.94;5068304;28;20283;-60
2023/01/23 01:25:00;;;;;;;;;;;;;;;1.03;100.00;103456.13;5064938;28;19920;-61
2023/01/23 01:27:26;;;;;;;;;;;;;;;1.03;100.00;103439.00;5054760;28;19920;-61
2023/01/23 01:29:52;;;;;;;;;;;;;;;1.02;100.00;103454.38;5068875;28;19917;-63
2023/01/23 01:32:17;;;;;;;;;;;;;;;1.03;100.00;103455.25;5068543;28;19927;-60
2023/01/23 01:34:42;;;;;;;;;;;;;;;1.04;100.00;103456.97;5071871;28;19927;-61
2023/01/23 01:37:07;;;;;;;;;;;;;;;1.05;100.00;103461.41;5048816;28;19921;-63
2023/01/23 01:39:32;;;;;;;;;;;;;;;1.05;100.00;103472.25;5064674;28;19925;-60
2023/01/23 01:41:57;;;;;;;;;;;;;;;1.11;100.00;103460.13;5072299;28;19924;-63
2023/01/23 01:44:23;;;;;;;;;;;;;;;2.06;100.00;103454.31;5066094;28;20009;-61
2023/01/23 01:46:49;;;;;;;;;;;;;;;1.67;100.00;103456.19;5054465;28;20400;-60
2023/01/23 01:49:15;;;;;;;;;;;;;;;1.53;100.00;103459.03;5048417;28;19923;-60
2023/01/23 01:51:41;;;;;;;;;;;;;;;1.64;100.00;103460.97;5061457;28;19927;-60
2023/01/23 01:54:09;;;;;;;;;;;;;;;1.59;100.00;103457.72;5058977;28;19923;-60
2023/01/23 01:56:53;;;;;;;;;;;;;;;1.84;100.00;103446.88;5061033;28;23548;-61
2023/01/23 01:59:20;;;;;;;;;;;;;;;1.73;100.00;103447.66;5053111;28;19921;-61
2023/01/23 02:01:46;;;;;;;;;;;;;;;1.69;100.00;103448.84;5052161;28;20310;-62
2023/01/23 02:04:12;;;;;;;;;;;;;;;1.51;100.00;103456.41;5052760;28;19923;-61
2023/01/23 02:06:38;;;;;;;;;;;;;;;1.59;100.00;103446.88;5054131;28;19925;-61
2023/01/23 02:09:32;;;;;;;;;;;;;;;1.44;100.00;103457.81;5063146;28;19921;-61
2023/01/23 02:11:57;;;;;;;;;;;;;;;1.43;100.00;103447.09;5050398;28;19920;-62
2023/01/23 02:14:24;;;;;;;;;;;;;;;1.38;100.00;103455.53;5047989;28;20437;-60
2023/01/23 02:16:51;;;;;;;;;;;;;;;1.37;100.00;103458.34;5050806;28;19974;-60
2023/01/23 02:19:25;;;;;;;;;;;;;;;1.22;100.00;103455.75;5048544;28;19943;-62
2023/01/23 02:21:52;;;;;;;;;;;;;;;1.27;100.00;103452.72;5048247;28;19916;-62
2023/01/23 02:24:47;;;;;;;;;;;;;;;1.36;100.00;103457.47;5055819;28;20350;-63
2023/01/23 02:27:12;;;;;;;;;;;;;;;1.55;100.00;103452.50;5047755;28;20589;-60
2023/01/23 02:29:42;;;;;;;;;;;;;;;1.06;100.00;103460.44;5063572;28;19999;-64
2023/01/23 02:32:07;;;;;;;;;;;;;;;0.95;100.00;103463.00;5045996;28;19917;-64
2023/01/23 02:34:32;;;;;;;;;;;;;;;0.92;100.00;103469.50;5057463;28;20298;-60
2023/01/23 02:36:58;;;;;;;;;;;;;;;0.92;100.00;103468.66;5049809;28;20028;-60
2023/01/23 02:39:23;;;;;;;;;;;;;;;0.92;100.00;103466.81;5047234;28;19964;-60
2023/01/23 02:41:50;;;;;;;;;;;;;;;1.48;100.00;103453.06;5055166;28;20706;-59
2023/01/23 02:44:26;;;;;;;;;;;;;;;1.76;100.00;103451.97;5060863;28;19929;-60
2023/01/23 02:46:55;;;;;;;;;;;;;;;1.80;100.00;103450.78;5123576;22;19929;-60
2023/01/23 02:49:21;;;;;;;;;;;;;;;1.46;100.00;103453.16;5064145;28;19971;-61
2023/01/23 02:51:47;;;;;;;;;;;;;;;1.61;100.00;103444.94;5065776;28;19959;-60
2023/01/23 02:54:12;;;;;;;;;;;;;;;1.29;100.00;103454.31;5064116;28;19984;-61
2023/01/23 02:56:37;;;;;;;;;;;;;;;1.28;100.00;103459.84;5067904;28;20522;-64
2023/01/23 03:01:46;;;;;;;;;;;;;;;1.03;100.00;103466.94;5065469;28;19923;-61
2023/01/23 03:04:12;;;;;;;;;;;;;;;0.98;100.00;103469.09;5060220;28;20016;-61
2023/01/23 03:06:37;;;;;;;;;;;;;;;0.96;100.00;103459.31;5047942;28;20022;-64
2023/01/23 03:09:15;;;;;;;;;;;;;;;0.93;100.00;103455.00;5063873;28;20048;-60
2023/01/23 03:11:42;;;;;;;;;;;;;;;0.93;100.00;103459.56;5047769;28;19917;-63
2023/01/23 03:14:08;;;;;;;;;;;;;;;0.93;100.00;103459.56;5067079;28;19921;-64
2023/01/23 03:16:34;;;;;;;;;;;;;;;0.91;100.00;103462.38;5068324;28;19917;-61
2023/01/23 03:19:04;;;;;;;;;;;;;;;0.93;100.00;103465.81;5065851;28;20378;-61
2023/01/23 03:21:32;;;;;;;;;;;;;;;0.93;100.00;103463.13;5064460;28;19924;-60
2023/01/23 03:23:58;;;;;;;;;;;;;;;0.93;100.00;103465.81;5065046;28;19932;-61
2023/01/23 03:26:23;;;;;;;;;;;;;;;0.92;100.00;103464.09;5066858;28;19924;-61
2023/01/23 03:31:32;;;;;;;;;;;;;;;0.92;100.00;103468.66;5069639;28;20016;-60
2023/01/23 03:33:57;;;;;;;;;;;;;;;0.91;100.00;103462.38;5069118;28;20023;-61
2023/01/23 03:36:22;;;;;;;;;;;;;;;0.92;100.00;103469.50;5069906;28;19928;-61
2023/01/23 03:41:31;;;;;;;;;;;;;;;0.97;100.00;103467.38;5057601;28;19962;-60
2023/01/23 03:43:57;;;;;;;;;;;;;;;0.98;100.00;103462.81;5069478;28;19925;-62
2023/01/23 03:46:22;;;;;;;;;;;;;;;0.98;100.00;103473.66;5070457;28;19916;-61
2023/01/23 03:48:47;;;;;;;;;;;;;;;0.97;100.00;103470.06;5069920;28;19920;-61
2023/01/23 03:51:13;;;;;;;;;;;;;;;0.97;100.00;103471.91;5070985;28;19916;-60
2023/01/23 03:53:38;;;;;;;;;;;;;;;1.43;100.00;103468.75;5067064;28;20358;-62
2023/01/23 03:56:03;;;;;;;;;;;;;;;1.50;100.00;103470.91;5070529;28;19920;-60
2023/01/23 03:58:29;;;;;;;;;;;;;;;1.48;100.00;103461.19;5070541;28;19927;-61
2023/01/23 04:00:55;;;;;;;;;;;;;;;1.62;100.00;103450.22;5068461;28;19921;-60
2023/01/23 04:03:20;;;;;;;;;;;;;;;1.53;100.00;103451.75;5070205;28;20001;-61
2023/01/23 04:05:45;;;;;;;;;;;;;;;1.61;100.00;103458.47;5068275;28;19920;-60
2023/01/23 04:08:10;;;;;;;;;;;;;;;1.98;100.00;103463.03;5069810;28;19924;-60
2023/01/23 04:10:35;;;;;;;;;;;;;;;1.89;100.00;103460.09;5069719;28;19920;-60
2023/01/23 04:13:01;;;;;;;;;;;;;;;1.73;100.00;103463.91;5064971;28;20341;-60
2023/01/23 04:15:27;;;;;;;;;;;;;;;1.97;100.00;103463.97;5061310;28;19931;-61
2023/01/23 04:17:52;;;;;;;;;;;;;;;1.55;100.00;103467.91;5064651;28;20294;-60
2023/01/23 04:20:17;;;;;;;;;;;;;;;1.75;100.00;103469.19;5068426;28;19928;-61
2023/01/23 04:22:42;;;;;;;;;;;;;;;1.62;100.00;103460.19;5070056;28;19943;-60
2023/01/23 04:25:08;;;;;;;;;;;;;;;1.85;100.00;103458.59;5069613;28;19964;-62
2023/01/23 04:27:34;;;;;;;;;;;;;;;1.48;100.00;103462.06;5070308;28;19928;-60
2023/01/23 04:29:59;;;;;;;;;;;;;;;1.35;100.00;103466.56;5068365;28;19920;-61
2023/01/23 04:32:24;;;;;;;;;;;;;;;1.18;100.00;103475.00;5070758;28;19917;-63
2023/01/23 04:34:50;;;;;;;;;;;;;;;1.16;100.00;103477.78;5068547;28;19921;-60
2023/01/23 04:37:15;;;;;;;;;;;;;;;1.03;100.00;103482.31;5066493;28;19931;-60
2023/01/23 04:39:41;;;;;;;;;;;;;;;1.01;100.00;103485.13;5059164;28;19928;-61
2023/01/23 04:42:06;;;;;;;;;;;;;;;0.98;100.00;103479.06;5070886;28;20354;-61
2023/01/23 04:44:31;;;;;;;;;;;;;;;1.46;100.00;103468.53;5068870;28;19924;-60
2023/01/23 04:46:56;;;;;;;;;;;;;;;1.00;100.00;103477.97;5064758;28;19924;-63
2023/01/23 04:49:22;;;;;;;;;;;;;;;0.97;100.00;103483.59;5067273;28;19920;-60
2023/01/23 04:51:48;;;;;;;;;;;;;;;0.97;100.00;103478.19;5070347;28;20282;-61
2023/01/23 04:54:14;;;;;;;;;;;;;;;0.95;100.00;103480.09;5066836;28;19921;-61
2023/01/23 04:56:39;;;;;;;;;;;;;;;0.95;100.00;103474.69;5069932;28;19916;-61
2023/01/23 04:59:05;;;;;;;;;;;;;;;0.96;100.00;103490.00;5070514;28;20270;-60
2023/01/23 05:01:30;;;;;;;;;;;;;;;1.00;100.00;103488.78;5068751;28;19922;-60
2023/01/23 05:03:56;;;;;;;;;;;;;;;0.98;100.00;103495.28;5068279;28;19924;-63
2023/01/23 05:06:21;;;;;;;;;;;;;;;1.47;100.00;103489.22;5065895;28;19931;-62
2023/01/23 05:08:46;;;;;;;;;;;;;;;1.47;100.00;103484.69;5051603;28;19916;-60
2023/01/23 05:11:11;;;;;;;;;;;;;;;1.63;100.00;103481.78;5049199;28;19983;-60
2023/01/23 05:13:37;;;;;;;;;;;;;;;1.12;100.00;103491.66;5049630;28;19913;-60
2023/01/23 05:16:02;;;;;;;;;;;;;;;1.14;100.00;103495.13;5049290;28;19920;-61
2023/01/23 05:18:27;;;;;;;;;;;;;;;1.09;100.00;103502.69;5046683;28;19920;-61
2023/01/23 05:20:52;;;;;;;;;;;;;;;1.06;100.00;103497.47;5047198;28;19920;-60
2023/01/23 05:23:17;;;;;;;;;;;;;;;1.06;100.00;103500.16;5060780;28;19920;-61
2023/01/23 05:25:43;;;;;;;;;;;;;;;1.07;100.00;103494.69;5067524;28;20490;-60
2023/01/23 05:28:09;;;;;;;;;;;;;;;1.07;100.00;103499.22;5069295;28;19917;-61
2023/01/23 05:30:34;;;;;;;;;;;;;;;1.04;100.00;103506.56;5069821;28;19923;-61
2023/01/23 05:32:59;;;;;;;;;;;;;;;1.03;100.00;103504.81;5069055;28;19913;-60
2023/01/23 05:35:24;;;;;;;;;;;;;;;1.04;100.00;103503.00;5068534;28;19948;-62
2023/01/23 05:37:50;;;;;;;;;;;;;;;1.04;100.00;103514.69;5067715;28;20337;-61
2023/01/23 05:40:16;;;;;;;;;;;;;;;1.45;100.00;103507.41;5068715;28;19917;-61
2023/01/23 05:42:41;;;;;;;;;;;;;;;1.11;100.00;103507.00;5069238;28;19916;-61
2023/01/23 05:45:06;;;;;;;;;;;;;;;1.11;100.00;103509.72;5069115;28;19964;-60
2023/01/23 05:47:31;;;;;;;;;;;;;;;1.10;100.00;103512.53;5067337;28;19921;-61
2023/01/23 05:49:57;;;;;;;;;;;;;;;1.09;100.00;103514.38;5067617;28;19921;-60
2023/01/23 05:52:22;;;;;;;;;;;;;;;1.15;100.00;103513.09;5068432;28;19912;-61
2023/01/23 05:54:47;;;;;;;;;;;;;;;1.12;100.00;103522.28;5067510;28;19920;-61
2023/01/23 05:57:12;;;;;;;;;;;;;;;1.10;100.00;103505.28;5066069;28;20399;-61
2023/01/23 05:59:38;;;;;;;;;;;;;;;1.11;100.00;103512.41;5068301;28;19922;-62
2023/01/23 06:02:03;;;;;;;;;;;;;;;1.12;100.00;103507.91;5069299;28;20015;-61
2023/01/23 06:04:29;;;;;;;;;;;;;;;1.13;100.00;103507.78;5067696;28;19916;-61
2023/01/23 06:06:54;;;;;;;;;;;;;;;1.11;100.00;103503.44;5068605;28;20006;-61
2023/01/23 06:09:19;;;;;;;;;;;;;;;1.12;100.00;103519.59;5068101;28;19923;-62
2023/01/23 06:11:44;;;;;;;;;;;;;;;1.13;100.00;103521.31;5066975;28;19924;-60
2023/01/23 06:14:09;;;;;;;;;;;;;;;1.13;100.00;103515.03;5068407;28;20353;-61
2023/01/23 06:16:34;;;;;;;;;;;;;;;1.62;100.00;103520.66;5068526;28;19932;-62
2023/01/23 06:19:00;;;;;;;;;;;;;;;1.56;100.00;103524.66;5066172;28;19962;-61
2023/01/23 06:21:25;;;;;;;;;;;;;;;2.08;100.00;103520.16;5068384;28;19917;-61
2023/01/23 06:23:50;;;;;;;;;;;;;;;1.67;100.00;103532.03;5067720;28;19916;-60
2023/01/23 06:26:15;;;;;;;;;;;;;;;1.44;100.00;103530.06;5067768;28;19939;-61
2023/01/23 06:28:40;;;;;;;;;;;;;;;1.55;100.00;103525.63;5067103;28;19921;-61
2023/01/23 06:31:08;;;;;;;;;;;;;;;2.26;100.00;103528.81;5067976;28;19939;-61
2023/01/23 06:33:33;;;;;;;;;;;;;;;2.21;100.00;103525.56;5068389;28;19916;-62
2023/01/23 06:35:59;;;;;;;;;;;;;;;2.12;100.00;103527.06;5066247;28;19986;-61
2023/01/23 06:38:24;;;;;;;;;;;;;;;1.74;100.00;103530.66;5066995;28;19977;-61
2023/01/23 06:40:49;;;;;;;;;;;;;;;1.33;100.00;103541.63;5062920;28;20000;-62
2023/01/23 06:43:15;;;;;;;;;;;;;;;1.45;100.00;103534.50;5066437;28;20254;-61
2023/01/23 06:45:43;;;;;;;;;;;;;;;1.88;100.00;103527.00;5066169;28;19923;-61
2023/01/23 06:48:08;;;;;;;;;;;;;;;2.06;100.00;103538.34;5065738;28;20293;-61
2023/01/23 06:50:33;;;;;;;;;;;;;;;1.85;100.00;103535.31;5066396;28;19917;-61
2023/01/23 06:52:58;;;;;;;;;;;;;;;1.97;100.00;103541.72;5065902;28;19954;-62
2023/01/23 06:55:23;;;;;;;;;;;;;;;1.51;100.00;103543.06;5064833;28;20005;-61
2023/01/23 06:57:48;;;;;;;;;;;;;;;1.92;100.00;103542.03;5066025;28;19928;-61
2023/01/23 07:00:14;;;;;;;;;;;;;;;1.63;100.00;103552.22;5066110;28;20298;-61
2023/01/23 07:02:39;;;;;;;;;;;;;;;1.37;100.00;103548.59;5066145;28;20001;-61
2023/01/23 07:05:04;;;;;;;;;;;;;;;1.41;100.00;103551.94;5065850;28;19923;-61
2023/01/23 07:07:29;;;;;;;;;;;;;;;2.05;100.00;103548.34;5069760;28;19917;-61
2023/01/23 07:09:55;;;;;;;;;;;;;;;1.74;100.00;103554.19;5069654;28;19916;-60
2023/01/23 07:12:20;;;;;;;;;;;;;;;1.93;100.00;103554.63;5070183;28;19916;-64
2023/01/23 07:14:45;;;;;;;;;;;;;;;2.01;100.00;103559.50;5069675;28;20424;-63
2023/01/23 07:17:10;;;;;;;;;;;;;;;1.76;100.00;103552.22;5070057;28;20024;-62
2023/01/23 07:19:35;;;;;;;;;;;;;;;1.56;100.00;103557.16;5069295;28;19923;-61
2023/01/23 07:22:01;;;;;;;;;;;;;;;1.77;100.00;103564.78;5070043;28;20015;-61
2023/01/23 07:24:28;;;;;;;;;;;;;;;2.06;100.00;103560.91;5069717;28;19923;-61
2023/01/23 07:26:53;;;;;;;;;;;;;;;1.54;100.00;103567.25;5069352;28;19970;-61
2023/01/23 07:29:19;;;;;;;;;;;;;;;2.14;100.00;103573.94;5069689;28;19944;-63
2023/01/23 07:31:44;;;;;;;;;;;;;;;1.64;100.00;103582.88;5069535;28;19916;-61
2023/01/23 07:34:09;;;;;;;;;;;;;;;1.62;100.00;103582.97;5068898;28;19916;-62
2023/01/23 07:36:34;;;;;;;;;;;;;;;1.88;100.00;103581.19;5070659;28;19965;-61
2023/01/23 07:38:59;;;;;;;;;;;;;;;1.74;100.00;103576.72;5068455;28;19923;-61
2023/01/23 07:41:25;;;;;;;;;;;;;;;1.62;100.00;103577.53;5069626;28;19916;-61
2023/01/23 07:43:50;;;;;;;;;;;;;;;2.04;100.00;103584.56;5069398;28;19943;-61
2023/01/23 07:46:15;;;;;;;;;;;;;;;2.19;100.00;103581.75;5069406;28;20030;-61
2023/01/23 07:48:40;;;;;;;;;;;;;;;1.89;100.00;103596.47;5067881;28;20433;-62
2023/01/23 07:51:05;;;;;;;;;;;;;;;1.70;100.00;103601.41;5069903;28;19916;-61
2023/01/23 07:53:31;;;;;;;;;;;;;;;1.51;100.00;103599.94;5069325;28;20350;-61
2023/01/23 07:55:56;;;;;;;;;;;;;;;1.62;100.00;103609.19;5069503;28;20290;-63
2023/01/23 07:58:21;;;;;;;;;;;;;;;1.49;100.00;103607.31;5069253;28;20477;-62
2023/01/23 08:00:46;;;;;;;;;;;;;;;1.47;100.00;103606.56;5069043;28;20051;-61
2023/01/23 08:03:12;;;;;;;;;;;;;;;1.48;100.00;103602.88;5068902;28;19916;-64
2023/01/23 08:05:37;;;;;;;;;;;;;;;1.58;100.00;103604.97;5068679;28;20034;-65
2023/01/23 08:08:02;;;;;;;;;;;;;;;1.89;100.00;103601.88;5068797;28;19978;-63
2023/01/23 08:10:27;;;;;;;;;;;;;;;1.78;100.00;103599.06;5068998;28;20008;-62
2023/01/23 08:12:52;;;;;;;;;;;;;;;1.82;100.00;103603.25;5068853;28;20314;-61
2023/01/23 08:15:18;;;;;;;;;;;;;;;2.10;100.00;103607.66;5069613;28;19920;-61
2023/01/23 08:17:43;;;;;;;;;;;;;;;2.52;100.00;103605.56;5068135;28;20371;-61
2023/01/23 08:20:09;;;;;;;;;;;;;;;2.40;100.00;103607.34;5068265;28;19916;-64
2023/01/23 08:22:36;;;;;;;;;;;;;;;2.10;100.00;103606.78;5069336;28;19920;-61
2023/01/23 08:25:01;;;;;;;;;;;;;;;2.29;100.00;103602.66;5068404;28;19931;-62
2023/01/23 08:27:26;;;;;;;;;;;;;;;2.64;100.00;103610.13;5069171;28;20396;-62
2023/01/23 08:29:51;;;;;;;;;;;;;;;2.00;100.00;103614.69;5068177;28;20027;-61
2023/01/23 08:32:16;;;;;;;;;;;;;;;1.92;100.00;103623.34;5068804;28;19994;-61
2023/01/23 08:34:42;;;;;;;;;;;;;;;2.32;100.00;103616.00;5067440;28;19917;-64
2023/01/23 08:37:07;;;;;;;;;;;;;;;2.49;100.00;103622.97;5068556;28;19916;-64
2023/01/23 08:39:32;;;;;;;;;;;;;;;2.32;100.00;103623.28;5067030;28;19928;-62
2023/01/23 08:41:57;;;;;;;;;;;;;;;2.07;100.00;103633.13;5052169;28;19970;-62
2023/01/23 08:44:22;;;;;;;;;;;;;;;2.09;100.00;103630.31;5049963;28;20455;-61
2023/01/23 08:46:48;;;;;;;;;;;;;;;2.52;100.00;103625.44;5049663;28;19983;-61
2023/01/23 08:49:13;;;;;;;;;;;;;;;2.34;100.00;103630.34;5048728;28;19939;-62
2023/01/23 08:51:38;;;;;;;;;;;;;;;2.21;100.00;103623.16;5049816;28;19916;-62
2023/01/23 08:54:03;;;;;;;;;;;;;;;2.35;100.00;103631.19;5049496;28;19924;-61
2023/01/23 08:56:29;;;;;;;;;;;;;;;2.23;100.00;103630.22;5049879;28;19924;-62
2023/01/23 08:58:54;;;;;;;;;;;;;;;2.41;100.00;103630.75;5049621;28;19924;-61
2023/01/23 09:01:20;;;;;;;;;;;;;;;2.46;100.00;103636.72;5049329;28;19924;-64
2023/01/23 09:03:46;;;;;;;;;;;;;;;2.53;100.00;103631.72;5048509;28;19924;-61
2023/01/23 09:06:12;;;;;;;;;;;;;;;2.41;100.00;103635.31;5049986;28;20359;-61
2023/01/23 09:08:37;;;;;;;;;;;;;;;2.67;100.00;103641.59;5049418;28;20308;-65
2023/01/23 09:11:03;;;;;;;;;;;;;;;2.45;100.00;103648.56;5049834;28;19923;-61
2023/01/23 09:13:28;;;;;;;;;;;;;;;2.92;100.00;103641.56;5049479;28;19920;-61
2023/01/23 09:15:54;;;;;;;;;;;;;;;2.81;100.00;103641.47;5049570;28;19948;-62
2023/01/23 09:18:21;;;;;;;;;;;;;;;2.78;100.00;103637.13;5063856;28;19948;-62
2023/01/23 09:20:46;;;;;;;;;;;;;;;2.47;100.00;103634.88;5049083;28;19913;-62
2023/01/23 09:23:12;;;;;;;;;;;;;;;2.63;100.00;103629.22;5049322;28;19940;-62
2023/01/23 09:25:37;;;;;;;;;;;;;;;2.88;100.00;103623.75;5049301;28;20360;-65
2023/01/23 09:28:02;;;;;;;;;;;;;;;2.89;100.00;103619.19;5048832;28;19920;-61
2023/01/23 09:30:27;;;;;;;;;;;;;;;2.34;100.00;103626.75;5049134;28;20007;-61
2023/01/23 09:32:52;;;;;;;;;;;;;;;2.48;100.00;103621.19;5048687;28;19917;-62
2023/01/23 09:35:18;;;;;;;;;;;;;;;2.48;100.00;103632.03;5048447;28;20024;-61
2023/01/23 09:38:03;;;;;;;;;;;;;;;2.39;100.00;103627.31;5048687;28;19917;-61
2023/01/23 09:40:31;;;;;;;;;;;;;;;2.51;100.00;103637.25;5049007;28;19951;-62
2023/01/23 09:42:59;;;;;;;;;;;;;;;2.88;100.00;103631.88;5048600;28;19917;-61
2023/01/23 09:45:26;;;;;;;;;;;;;;;2.74;100.00;103645.63;5049238;28;19916;-61
2023/01/23 09:48:06;;;;;;;;;;;;;;;3.18;100.00;103645.06;5048277;28;19924;-63
2023/01/23 09:50:35;;;;;;;;;;;;;;;3.03;100.00;103647.06;5048290;28;19923;-61
2023/01/23 09:53:05;;;;;;;;;;;;;;;2.90;100.00;103648.94;5047866;28;19917;-63
2023/01/23 09:55:39;;;;;;;;;;;;;;;3.15;100.00;103653.47;5048878;28;20020;-61
2023/01/23 09:58:08;;;;;;;;;;;;;;;3.12;100.00;103657.25;5048704;28;19924;-61
2023/01/23 10:00:35;;;;;;;;;;;;;;;3.10;100.00;103656.50;5048957;28;19923;-61
2023/01/23 10:03:01;;;;;;;;;;;;;;;3.22;100.00;103659.28;5048063;28;19924;-61
2023/01/23 10:05:41;;;;;;;;;;;;;;;3.06;100.00;103660.41;5047925;28;20303;-62
2023/01/23 10:08:06;;;;;;;;;;;;;;;3.56;100.00;103653.06;5054009;28;19928;-64
2023/01/23 10:10:50;;;;;;;;;;;;;;;3.08;100.00;103654.88;5061367;28;19921;-63
2023/01/23 10:13:15;;;;;;;;;;;;;;;3.25;100.00;103650.94;5065359;28;19966;-63
2023/01/23 10:15:57;;;;;;;;;;;;;;;3.13;100.00;103650.81;5079006;28;19968;-61
2023/01/23 10:18:24;;;;;;;;;;;;;;;3.32;100.00;103649.47;5067454;28;20003;-62
2023/01/23 10:21:07;;;;;;;;;;;;;;;3.25;100.00;103662.66;5066876;28;20015;-62
2023/01/23 10:23:35;;;;;;;;;;;;;;;2.84;100.00;103657.53;5068133;28;20393;-62
2023/01/23 10:26:01;;;;;;;;;;;;;;;3.39;100.00;103658.88;5066832;28;20355;-60
2023/01/23 10:28:37;;;;;;;;;;;;;;;3.15;100.00;103661.59;5068289;28;20007;-61
2023/01/23 10:31:09;;;;;;;;;;;;;;;3.38;100.00;103660.75;5068390;28;19955;-61
2023/01/23 10:33:47;;;;;;;;;;;;;;;3.32;100.00;103655.78;5062082;28;19920;-61
2023/01/23 10:36:17;;;;;;;;;;;;;;;3.30;100.00;103649.59;5053552;28;19982;-62
2023/01/23 10:38:55;;;;;;;;;;;;;;;2.86;100.00;103652.84;5059427;28;19942;-62
2023/01/23 10:41:21;;;;;;;;;;;;;;;2.84;100.00;103654.84;5060877;28;19958;-61
2023/01/23 10:43:48;;;;;;;;;;;;;;;3.33;100.00;103659.34;5066283;28;19956;-62
2023/01/23 10:46:15;;;;;;;;;;;;;;;3.73;100.00;103659.94;5060962;28;19993;-61
2023/01/23 10:48:47;;;;;;;;;;;;;;;3.19;100.00;103654.94;5061465;28;19920;-61
2023/01/23 10:51:25;;;;;;;;;;;;;;;3.23;100.00;103652.88;5065216;28;19921;-62
2023/01/23 10:53:59;;;;;;;;;;;;;;;3.58;100.00;103655.66;5061298;28;19927;-62
2023/01/23 10:56:25;;;;;;;;;;;;;;;3.06;100.00;103652.28;5063582;28;19920;-61
2023/01/23 10:58:53;;;;;;;;;;;;;;;2.98;100.00;103645.66;5062604;28;20295;-62
2023/01/23 11:01:24;;;;;;;;;;;;;;;3.01;100.00;103650.88;5058953;28;20018;-61
2023/01/23 11:03:49;;;;;;;;;;;;;;;3.13;100.00;103644.53;5060321;28;19921;-62
2023/01/23 11:06:19;;;;;;;;;;;;;;;3.03;100.00;103643.47;5062997;28;19927;-61
2023/01/23 11:08:50;;;;;;;;;;;;;;;3.27;100.00;103640.81;5064794;28;19917;-61
2023/01/23 11:11:15;;;;;;;;;;;;;;;3.06;100.00;103646.84;5067225;28;19966;-61
2023/01/23 11:13:45;;;;;;;;;;;;;;;3.29;100.00;103644.25;5065941;28;19932;-62
2023/01/23 11:16:14;;;;;;;;;;;;;;;3.35;100.00;103641.13;5067838;28;20364;-62
2023/01/23 11:18:41;;;;;;;;;;;;;;;3.22;100.00;103649.28;5064927;28;19920;-63
2023/01/23 11:21:19;;;;;;;;;;;;;;;3.69;100.00;103641.25;5067281;28;19916;-61
2023/01/23 11:23:44;;;;;;;;;;;;;;;3.17;100.00;103653.34;5065481;28;19925;-62
2023/01/23 11:26:29;;;;;;;;;;;;;;;4.14;99.08;103640.44;5066244;28;20024;-62
2023/01/23 11:28:54;;;;;;;;;;;;;;;4.04;98.32;103646.72;5065087;28;20015;-63
2023/01/23 11:31:20;;;;;;;;;;;;;;;3.55;100.00;103642.34;5066613;28;19967;-62
2023/01/23 11:34:03;;;;;;;;;;;;;;;4.04;99.54;103631.25;5063444;28;20103;-62
2023/01/23 11:36:40;;;;;;;;;;;;;;;3.57;100.00;103635.78;5056798;28;19971;-61
2023/01/23 11:39:17;;;;;;;;;;;;;;;3.96;99.93;103638.28;5060166;28;19920;-64
2023/01/23 11:41:43;;;;;;;;;;;;;;;3.78;100.00;103638.72;5064826;28;19939;-62
2023/01/23 11:44:16;;;;;;;;;;;;;;;4.25;96.75;103644.16;5059312;28;19964;-61
2023/01/23 11:47:02;;;;;;;;;;;;;;;3.71;99.12;103644.75;5058533;28;19920;-62
2023/01/23 11:49:33;;;;;;;;;;;;;;;3.75;100.00;103647.13;5047181;28;20763;-60
2023/01/23 11:52:13;;;;;;;;;;;;;;;3.81;100.00;103641.22;5066482;28;19973;-61
2023/01/23 11:54:44;;;;;;;;;;;;;;;3.63;100.00;103648.91;5053634;28;19924;-62
2023/01/23 11:57:32;;;;;;;;;;;;;;;3.79;100.00;103661.31;5051063;28;19917;-61
2023/01/23 12:00:20;;;;;;;;;;;;;;;4.15;97.13;103653.03;5068732;28;20444;-61
2023/01/23 12:02:56;;;;;;;;;;;;;;;3.98;99.88;103648.06;5069127;28;19927;-63
2023/01/23 12:05:39;;;;;;;;;;;;;;;4.25;98.05;103649.59;5069882;28;20378;-61
2023/01/23 12:08:13;;;;;;;;;;;;;;;3.59;100.00;103654.69;5069598;28;19917;-62
2023/01/23 12:10:57;;;;;;;;;;;;;;;4.15;98.76;103649.44;5066853;28;19981;-62
2023/01/23 12:13:46;;;;;;;;;;;;;;;4.05;96.97;103643.84;5063304;28;19926;-61
2023/01/23 12:16:11;;;;;;;;;;;;;;;4.12;96.17;103647.84;5065214;28;19916;-61
2023/01/23 12:18:43;;;;;;;;;;;;;;;4.13;96.14;103646.88;5069643;28;19921;-61
2023/01/23 12:21:17;;;;;;;;;;;;;;;3.67;99.37;103645.97;5069908;28;19916;-61
2023/01/23 12:23:54;;;;;;;;;;;;;;;3.74;98.93;103634.50;5067347;28;19925;-61
2023/01/23 12:26:23;;;;;;;;;;;;;;;4.01;97.97;103642.38;5049542;28;19927;-61
2023/01/23 12:29:00;;;;;;;;;;;;;;;4.09;97.53;103639.06;5050101;28;19967;-61
2023/01/23 12:31:39;;;;;;;;;;;;;;;3.70;98.68;103634.84;5069912;28;20384;-62
2023/01/23 12:34:25;;;;;;;;;;;;;;;3.98;97.92;103629.03;5066623;28;19916;-61
2023/01/23 12:37:00;;;;;;;;;;;;;;;3.63;100.00;103627.16;5069862;28;19920;-61
2023/01/23 12:39:44;;;;;;;;;;;;;;;3.50;100.00;103639.97;5070169;28;19920;-62
2023/01/23 12:42:14;;;;;;;;;;;;;;;3.40;100.00;103638.91;5064956;28;19921;-61
2023/01/23 12:44:50;;;;;;;;;;;;;;;3.54;99.91;103633.28;5070068;28;19931;-61
2023/01/23 12:47:19;;;;;;;;;;;;;;;3.77;98.13;103631.53;5066016;28;19920;-61
2023/01/23 12:49:52;;;;;;;;;;;;;;;3.94;97.60;103626.66;5068874;28;20379;-61